Thurman, Iowa
Current Conditions -  °F | °C
As of 3:15 AM on Wednesday 28 Jan 2015 (Local Time) from KPMV Reporting Station
Clear Clear  
Wind Chill: 28°   Ceiling: Unl
Heat Index: 35°   Visibility: 10mi
Dew Point: 29°   Wind: 10mph
Humidity: 79%   Direction: 120°ESE
Pressure: 29.93"   Gusts: NA
Location:  40.82°N, 95.75°W
Report Text: KPMV 280915Z AUTO 12009KT 10SM CLR 02/M01 A2993 RMK AO2 T00181015
Loading
Personal Weather Stations






























Interactive Weather Map New forecast layout! Learn more

10-Day Weather Forecast

Advertisements
Track Severe Weather on mobile